Time;durP1;ratioP1;P1;durP2;ratioP2;P2;SDS_P1;SDS_P2;PMS_P1;PMS_P2;Temp;Humidity;BMP_temperature;BMP_pressure;BME280_temperature;BME280_humidity;BME280_pressure;Samples;Min_cycle;Max_cycle;Signal;HPM_P1;HPM_P2
2021/01/10 00:00:43;;;;;;;3.70;2.88;;;;;;;-144.01;100.00;62166.59;5066866;28;20082;-47
2021/01/10 00:03:12;;;;;;;3.85;3.25;;;;;;;-144.01;100.00;62166.59;5053068;28;20369;-50
2021/01/10 00:05:41;;;;;;;3.97;2.90;;;;;;;-144.01;100.00;62166.59;5052939;28;20053;-48
2021/01/10 00:08:08;;;;;;;3.85;2.60;;;;;;;-144.01;100.00;62166.59;5065198;28;20060;-50
2021/01/10 00:10:35;;;;;;;3.03;2.45;;;;;;;-144.01;100.00;62166.59;5072890;28;20051;-50
2021/01/10 00:13:03;;;;;;;3.38;2.55;;;;;;;-144.01;100.00;62166.59;5076400;28;20064;-51
2021/01/10 00:15:31;;;;;;;2.92;2.45;;;;;;;-144.01;100.00;62166.59;5071094;28;20056;-45
2021/01/10 00:17:58;;;;;;;2.83;2.22;;;;;;;-144.01;100.00;62166.59;5075260;28;20048;-47
2021/01/10 00:20:27;;;;;;;3.00;2.35;;;;;;;-144.01;100.00;62166.59;5074087;28;20052;-45
2021/01/10 00:22:55;;;;;;;3.25;2.63;;;;;;;-144.01;100.00;62166.59;5070943;28;20083;-46
2021/01/10 00:25:23;;;;;;;2.85;2.40;;;;;;;-144.01;100.00;62166.59;5072063;28;20068;-47
2021/01/10 00:27:51;;;;;;;3.03;2.40;;;;;;;-144.01;100.00;62166.59;5061829;28;20049;-52
2021/01/10 00:30:21;;;;;;;4.50;3.13;;;;;;;-144.01;100.00;62166.59;5064072;28;20055;-48
2021/01/10 00:32:56;;;;;;;3.90;3.17;;;;;;;-144.01;100.00;62166.59;5065195;28;20041;-46
2021/01/10 00:35:24;;;;;;;3.92;3.25;;;;;;;-144.01;100.00;62166.59;5063928;28;20056;-47
2021/01/10 00:37:56;;;;;;;4.32;3.10;;;;;;;-144.01;100.00;62166.59;5066661;28;20051;-60
2021/01/10 00:40:24;;;;;;;4.43;3.20;;;;;;;-144.01;100.00;62166.59;5065824;28;20451;-45
2021/01/10 00:42:52;;;;;;;4.90;3.15;;;;;;;-144.01;100.00;62166.59;5064488;28;20057;-48
2021/01/10 00:45:19;;;;;;;2.83;1.90;;;;;;;-144.01;100.00;62166.59;5064394;28;20056;-51
2021/01/10 00:47:54;;;;;;;2.13;1.80;;;;;;;-144.01;100.00;62166.59;5067220;28;20056;-50
2021/01/10 00:50:24;;;;;;;16.85;11.40;;;;;;;-144.01;100.00;62166.59;5045782;28;20060;-50
2021/01/10 00:52:52;;;;;;;3.72;2.70;;;;;;;-144.01;100.00;62166.59;5047805;28;20041;-48
2021/01/10 00:55:19;;;;;;;2.88;2.08;;;;;;;-144.01;100.00;62166.59;5066156;28;20477;-52
2021/01/10 00:57:50;;;;;;;3.25;2.22;;;;;;;-144.01;100.00;62166.59;5047569;28;20048;-48
2021/01/10 01:00:19;;;;;;;2.58;1.80;;;;;;;-144.01;100.00;62166.59;5048766;28;20055;-48
2021/01/10 01:02:49;;;;;;;4.28;2.75;;;;;;;-144.01;100.00;62166.59;5064901;28;20064;-48
2021/01/10 01:05:16;;;;;;;3.70;2.28;;;;;;;-144.01;100.00;62166.59;5063544;28;20048;-47
2021/01/10 01:07:44;;;;;;;3.90;2.47;;;;;;;-144.01;100.00;62166.59;5066175;28;20052;-50
2021/01/10 01:10:11;;;;;;;2.90;2.00;;;;;;;-144.01;100.00;62166.59;5065708;28;20447;-47
2021/01/10 01:12:38;;;;;;;2.90;2.10;;;;;;;-144.01;100.00;62166.59;5064479;28;20060;-51
2021/01/10 01:15:07;;;;;;;3.13;1.90;;;;;;;-144.01;100.00;62166.59;5064519;28;20048;-47
2021/01/10 01:17:36;;;;;;;2.30;1.73;;;;;;;-144.01;100.00;62166.59;5064609;28;20064;-48
2021/01/10 01:20:06;;;;;;;3.13;2.35;;;;;;;-144.01;100.00;62166.59;5064772;28;20052;-46
2021/01/10 01:22:34;;;;;;;2.05;1.80;;;;;;;-144.01;100.00;62166.59;5063955;28;20060;-46
2021/01/10 01:25:02;;;;;;;2.45;1.90;;;;;;;-144.01;100.00;62166.59;5063108;28;20056;-47
2021/01/10 01:27:33;;;;;;;2.38;1.80;;;;;;;-144.01;100.00;62166.59;5063847;28;20048;-48
2021/01/10 01:30:01;;;;;;;2.50;1.85;;;;;;;-144.01;100.00;62166.59;5064465;28;20075;-46
2021/01/10 01:32:28;;;;;;;2.72;1.80;;;;;;;-144.01;100.00;62166.59;5065480;28;20060;-47
2021/01/10 01:34:56;;;;;;;2.67;1.90;;;;;;;-144.01;100.00;62166.59;5064655;28;20055;-47
2021/01/10 01:37:23;;;;;;;2.25;1.60;;;;;;;-144.01;100.00;62166.59;5063216;28;20053;-48
2021/01/10 01:39:50;;;;;;;2.88;1.92;;;;;;;-144.01;100.00;62166.59;5064459;28;20048;-46
2021/01/10 01:42:19;;;;;;;2.97;2.03;;;;;;;-144.01;100.00;62166.59;5065100;28;20057;-45
2021/01/10 01:44:46;;;;;;;2.22;1.88;;;;;;;-144.01;100.00;62166.59;5064588;28;20533;-46
2021/01/10 01:47:18;;;;;;;2.60;1.90;;;;;;;-144.01;100.00;62166.59;5063692;28;20127;-50
2021/01/10 01:49:48;;;;;;;3.28;2.08;;;;;;;-144.01;100.00;62166.59;5065099;28;20044;-49
2021/01/10 01:52:17;;;;;;;2.20;1.70;;;;;;;-144.01;100.00;62166.59;5065064;28;20045;-46
2021/01/10 01:54:44;;;;;;;2.50;2.00;;;;;;;-144.01;100.00;62166.59;5047947;28;20052;-50
2021/01/10 01:57:12;;;;;;;2.60;1.90;;;;;;;-144.01;100.00;62166.59;5062489;28;20040;-48
2021/01/10 01:59:39;;;;;;;2.30;1.80;;;;;;;-144.01;100.00;62166.59;5065675;28;20064;-47
2021/01/10 02:02:08;;;;;;;2.30;1.88;;;;;;;-144.01;100.00;62166.59;5063130;28;20056;-48
2021/01/10 02:04:58;;;;;;;2.40;1.98;;;;;;;-144.01;100.00;62166.59;5063420;28;20052;-51
2021/01/10 02:07:58;;;;;;;3.65;1.83;;;;;;;-144.01;100.00;62166.59;5063070;28;20060;-49
2021/01/10 02:10:30;;;;;;;2.42;2.00;;;;;;;-144.01;100.00;62166.59;5059802;28;20048;-55
2021/01/10 02:13:02;;;;;;;2.72;1.63;;;;;;;-144.01;100.00;62166.59;5063989;28;20052;-46
2021/01/10 02:15:34;;;;;;;2.88;1.80;;;;;;;-144.01;100.00;62166.59;5063651;28;20064;-46
2021/01/10 02:18:04;;;;;;;2.45;2.05;;;;;;;-144.01;100.00;62166.59;5045240;28;20052;-48
2021/01/10 02:20:33;;;;;;;2.47;1.80;;;;;;;-144.01;100.00;62166.59;5045093;28;20059;-47
2021/01/10 02:23:00;;;;;;;3.38;1.73;;;;;;;-144.01;100.00;62166.59;5064886;28;20063;-45
2021/01/10 02:25:28;;;;;;;2.28;1.70;;;;;;;-144.01;100.00;62166.59;5062964;28;20084;-46
2021/01/10 02:27:56;;;;;;;1.95;1.67;;;;;;;-144.01;100.00;62166.59;5045498;28;20362;-48
2021/01/10 02:30:23;;;;;;;2.63;2.00;;;;;;;-144.01;100.00;62166.59;5053832;28;20056;-46
2021/01/10 02:32:53;;;;;;;2.53;2.10;;;;;;;-144.01;100.00;62166.59;5063646;28;20045;-45
2021/01/10 02:35:21;;;;;;;2.53;1.85;;;;;;;-144.01;100.00;62166.59;5053686;28;20056;-45
2021/01/10 02:38:08;;;;;;;2.42;1.58;;;;;;;-144.01;100.00;62166.59;5052615;28;20059;-45
2021/01/10 02:40:49;;;;;;;2.30;1.55;;;;;;;-144.01;100.00;62166.59;5064886;28;20044;-52
2021/01/10 02:43:21;;;;;;;2.13;1.60;;;;;;;-144.01;100.00;62166.59;5063870;28;20355;-45
2021/01/10 02:45:51;;;;;;;2.72;1.88;;;;;;;-144.01;100.00;62166.59;5063216;28;20060;-45
2021/01/10 02:48:18;;;;;;;2.35;1.63;;;;;;;-144.01;100.00;62166.59;5062642;28;20354;-47
2021/01/10 02:50:46;;;;;;;2.00;1.60;;;;;;;-144.01;100.00;62166.59;5062247;28;20731;-45
2021/01/10 02:53:13;;;;;;;3.30;1.58;;;;;;;-144.01;100.00;62166.59;5063180;28;20064;-45
2021/01/10 02:55:40;;;;;;;2.30;1.75;;;;;;;-144.01;100.00;62166.59;5062157;28;20076;-48
2021/01/10 02:58:22;;;;;;;3.30;1.70;;;;;;;-144.01;100.00;62166.59;5063943;28;20052;-48
2021/01/10 03:00:51;;;;;;;2.58;1.80;;;;;;;-144.01;100.00;62166.59;5066916;28;20057;-47
2021/01/10 03:03:19;;;;;;;2.70;2.00;;;;;;;-144.01;100.00;62166.59;5071374;28;20063;-46
2021/01/10 03:05:48;;;;;;;3.17;1.80;;;;;;;-144.01;100.00;62166.59;5064615;28;20363;-45
2021/01/10 03:08:16;;;;;;;2.78;2.05;;;;;;;-144.01;100.00;62166.59;5044443;28;20056;-49
2021/01/10 03:10:45;;;;;;;3.03;1.70;;;;;;;-144.01;100.00;62166.59;5045315;28;20052;-48
2021/01/10 03:13:12;;;;;;;1.83;1.38;;;;;;;-144.01;100.00;62166.59;5060139;28;20052;-47
2021/01/10 03:15:39;;;;;;;2.25;1.77;;;;;;;-144.01;100.00;62166.59;5048129;28;20060;-59
2021/01/10 03:18:21;;;;;;;2.67;1.42;;;;;;;-144.01;100.00;62166.59;5053147;28;20347;-46
2021/01/10 03:20:49;;;;;;;2.20;1.60;;;;;;;-144.01;100.00;62166.59;5057028;28;20348;-47
2021/01/10 03:23:17;;;;;;;2.10;1.48;;;;;;;-144.01;100.00;62166.59;5073473;28;20056;-46
2021/01/10 03:25:46;;;;;;;2.95;1.60;;;;;;;-144.01;100.00;62166.59;5073232;28;20067;-49
2021/01/10 03:28:13;;;;;;;1.70;1.40;;;;;;;-144.01;100.00;62166.59;5073380;28;20056;-52
2021/01/10 03:30:40;;;;;;;1.98;1.40;;;;;;;-144.01;100.00;62166.59;5072935;28;20057;-51
2021/01/10 03:33:07;;;;;;;2.13;1.60;;;;;;;-144.01;100.00;62166.59;5073447;28;20067;-47
2021/01/10 03:35:34;;;;;;;2.58;1.60;;;;;;;-144.01;100.00;62166.59;5073368;28;20055;-46
2021/01/10 03:38:06;;;;;;;2.13;1.55;;;;;;;-144.01;100.00;62166.59;5073358;28;20763;-47
2021/01/10 03:40:33;;;;;;;1.80;1.40;;;;;;;-144.01;100.00;62166.59;5073137;28;20056;-50
2021/01/10 03:43:01;;;;;;;2.03;1.33;;;;;;;-144.01;100.00;62166.59;5073203;28;20370;-49
2021/01/10 03:45:28;;;;;;;2.78;1.60;;;;;;;-144.01;100.00;62166.59;5072873;28;20370;-46
2021/01/10 03:47:56;;;;;;;1.85;1.38;;;;;;;-144.01;100.00;62166.59;5076624;28;20366;-49
2021/01/10 03:50:23;;;;;;;2.30;1.70;;;;;;;-144.01;100.00;62166.59;5077217;28;20059;-46
2021/01/10 03:52:51;;;;;;;2.55;1.63;;;;;;;-144.01;100.00;62166.59;5074512;28;20082;-48
2021/01/10 03:55:20;;;;;;;1.85;1.42;;;;;;;-144.01;100.00;62166.59;5069745;28;20048;-49
2021/01/10 03:57:48;;;;;;;1.90;1.55;;;;;;;-144.01;100.00;62166.59;5065517;28;20056;-49
2021/01/10 04:00:15;;;;;;;1.80;1.35;;;;;;;-144.01;100.00;62166.59;5065570;28;20373;-46
2021/01/10 04:02:46;;;;;;;1.95;1.50;;;;;;;-144.01;100.00;62166.59;5065360;28;20052;-46
2021/01/10 04:05:13;;;;;;;1.60;1.20;;;;;;;-144.01;100.00;62166.59;5064750;28;20052;-47
2021/01/10 04:07:41;;;;;;;1.83;1.40;;;;;;;-144.01;100.00;62166.59;5063449;28;20053;-46
2021/01/10 04:10:11;;;;;;;2.20;1.27;;;;;;;-144.01;100.00;62166.59;5071917;28;20049;-48
2021/01/10 04:12:39;;;;;;;2.10;1.35;;;;;;;-144.01;100.00;62166.59;5047358;28;20056;-49
2021/01/10 04:15:07;;;;;;;3.17;1.10;;;;;;;-144.01;100.00;62166.59;5066372;28;20052;-50
2021/01/10 04:17:34;;;;;;;1.88;1.40;;;;;;;-144.01;100.00;62166.59;5066600;28;20056;-47
2021/01/10 04:20:01;;;;;;;1.95;1.33;;;;;;;-144.01;100.00;62166.59;5070528;28;20059;-56
2021/01/10 04:22:28;;;;;;;1.98;1.35;;;;;;;-144.01;100.00;62166.59;5076007;28;20061;-50
2021/01/10 04:24:55;;;;;;;1.63;1.40;;;;;;;-144.01;100.00;62166.59;5075761;28;20363;-57
2021/01/10 04:27:22;;;;;;;2.03;1.45;;;;;;;-144.01;100.00;62166.59;5075070;28;20375;-60
2021/01/10 04:29:50;;;;;;;1.70;1.40;;;;;;;-144.01;100.00;62166.59;5075251;28;20056;-50
2021/01/10 04:32:17;;;;;;;2.30;1.42;;;;;;;-144.01;100.00;62166.59;5073901;28;20044;-54
2021/01/10 04:34:44;;;;;;;1.65;1.48;;;;;;;-144.01;100.00;62166.59;5055139;28;20057;-47
2021/01/10 04:37:11;;;;;;;1.70;1.50;;;;;;;-144.01;100.00;62166.59;5054937;28;20045;-61
2021/01/10 04:39:38;;;;;;;2.22;1.67;;;;;;;-144.01;100.00;62166.59;5054940;28;20763;-56
2021/01/10 04:42:05;;;;;;;2.08;1.40;;;;;;;-144.01;100.00;62166.59;5066223;28;20048;-48
2021/01/10 04:44:33;;;;;;;2.25;1.50;;;;;;;-144.01;100.00;62166.59;5057573;28;20048;-56
2021/01/10 04:47:00;;;;;;;1.83;1.63;;;;;;;-144.01;100.00;62166.59;5063796;28;20080;-47
2021/01/10 04:49:28;;;;;;;2.80;1.80;;;;;;;-144.01;100.00;62166.59;5056195;28;20048;-48
2021/01/10 04:51:56;;;;;;;2.65;2.15;;;;;;;-144.01;100.00;62166.59;5055141;28;20063;-47
2021/01/10 04:54:24;;;;;;;2.20;1.92;;;;;;;-144.01;100.00;62166.59;5039750;28;20061;-49
2021/01/10 04:56:57;;;;;;;2.42;1.70;;;;;;;-144.01;100.00;62166.59;5064825;28;20440;-49
2021/01/10 04:59:28;;;;;;;2.20;1.90;;;;;;;-144.01;100.00;62166.59;5063295;28;20052;-49
2021/01/10 05:02:02;;;;;;;2.05;1.55;;;;;;;-144.01;100.00;62166.59;5062353;28;20063;-46
2021/01/10 05:04:30;;;;;;;2.92;1.85;;;;;;;-144.01;100.00;62166.59;5047995;28;20049;-47
2021/01/10 05:06:59;;;;;;;2.20;1.58;;;;;;;-144.01;100.00;62166.59;5062766;28;20060;-47
2021/01/10 05:09:36;;;;;;;2.22;1.80;;;;;;;-144.01;100.00;62166.59;5048982;28;20053;-49
2021/01/10 05:12:04;;;;;;;1.73;1.50;;;;;;;-144.01;100.00;62166.59;5062786;28;20063;-56
2021/01/10 05:14:32;;;;;;;1.90;1.70;;;;;;;-144.01;100.00;62166.59;5063642;28;20052;-55
2021/01/10 05:16:59;;;;;;;1.98;1.58;;;;;;;-144.01;100.00;62166.59;5055885;28;20057;-51
2021/01/10 05:19:29;;;;;;;2.58;1.58;;;;;;;-144.01;100.00;62166.59;5054504;28;20053;-50
2021/01/10 05:22:05;;;;;;;2.47;1.83;;;;;;;-144.01;100.00;62166.59;4992575;28;1873041;-47
2021/01/10 05:24:32;;;;;;;3.97;1.90;;;;;;;-144.01;100.00;62166.59;5064785;28;20048;-48
2021/01/10 05:26:59;;;;;;;2.22;1.55;;;;;;;-144.01;100.00;62166.59;5064673;28;20045;-64
2021/01/10 05:29:27;;;;;;;1.70;1.20;;;;;;;-144.01;100.00;62166.59;5046908;28;20052;-63
2021/01/10 05:31:54;;;;;;;1.60;1.20;;;;;;;-144.01;100.00;62166.59;5066501;28;20048;-55
2021/01/10 05:34:23;;;;;;;2.00;1.50;;;;;;;-144.01;100.00;62166.59;5054348;28;20092;-60
2021/01/10 05:36:50;;;;;;;1.92;1.55;;;;;;;-144.01;100.00;62166.59;5054937;28;20053;-47
2021/01/10 05:39:25;;;;;;;1.83;1.38;;;;;;;-144.01;100.00;62166.59;5063322;28;20048;-48
2021/01/10 05:42:01;;;;;;;2.88;1.40;;;;;;;-144.01;100.00;62166.59;5047981;28;20052;-60
2021/01/10 05:44:30;;;;;;;2.45;1.75;;;;;;;-144.01;100.00;62166.59;5071350;28;20048;-51
2021/01/10 05:47:08;;;;;;;3.10;2.40;;;;;;;-144.01;100.00;62166.59;5074650;28;20051;-48
2021/01/10 05:49:44;;;;;;;3.30;2.40;;;;;;;-144.01;100.00;62166.59;5075013;28;20786;-48
2021/01/10 05:52:12;;;;;;;2.10;1.70;;;;;;;-144.01;100.00;62166.59;5074431;28;20059;-48
2021/01/10 05:54:45;;;;;;;2.40;1.90;;;;;;;-144.01;100.00;62166.59;5074786;28;20052;-49
2021/01/10 05:57:17;;;;;;;2.08;1.50;;;;;;;-144.01;100.00;62166.59;5074611;28;20056;-48
2021/01/10 05:59:48;;;;;;;1.70;1.20;;;;;;;-144.01;100.00;62166.59;5074749;28;20052;-48
2021/01/10 06:02:28;;;;;;;1.95;1.75;;;;;;;-144.01;100.00;62166.59;5073973;28;20059;-48
2021/01/10 06:05:27;;;;;;;2.05;1.65;;;;;;;-144.01;100.00;62166.59;5074499;28;20465;-49
2021/01/10 06:07:54;;;;;;;1.95;1.63;;;;;;;-144.01;100.00;62166.59;5051518;28;20051;-58
2021/01/10 06:10:29;;;;;;;2.50;1.80;;;;;;;-144.01;100.00;62166.59;5063699;28;20045;-48
2021/01/10 06:13:04;;;;;;;2.10;1.60;;;;;;;-144.01;100.00;62166.59;5070835;28;20045;-48
2021/01/10 06:15:32;;;;;;;1.92;1.60;;;;;;;-144.01;100.00;62166.59;5074397;28;20055;-49
2021/01/10 06:18:04;;;;;;;2.20;1.60;;;;;;;-144.01;100.00;62166.59;5056656;28;20048;-49
2021/01/10 06:20:32;;;;;;;2.90;2.08;;;;;;;-144.01;100.00;62166.59;5074489;28;20052;-49
2021/01/10 06:23:04;;;;;;;2.22;1.75;;;;;;;-144.01;100.00;62166.59;5073709;28;20071;-48
2021/01/10 06:25:32;;;;;;;3.25;2.10;;;;;;;-144.01;100.00;62166.59;5074184;28;20075;-50
2021/01/10 06:28:11;;;;;;;3.85;2.47;;;;;;;-144.01;100.00;62166.59;5073991;28;20052;-62
2021/01/10 06:30:42;;;;;;;2.53;1.90;;;;;;;-144.01;100.00;62166.59;5073847;28;20059;-51
2021/01/10 06:33:16;;;;;;;2.65;2.00;;;;;;;-144.01;100.00;62166.59;5073690;28;20367;-48
2021/01/10 06:35:44;;;;;;;2.92;1.90;;;;;;;-144.01;100.00;62166.59;5074109;28;20059;-50
2021/01/10 06:38:11;;;;;;;2.63;1.85;;;;;;;-144.01;100.00;62166.59;5073914;28;20374;-49
2021/01/10 06:40:42;;;;;;;4.95;2.17;;;;;;;-144.01;100.00;62166.59;5074125;28;20055;-51
2021/01/10 06:43:09;;;;;;;3.00;1.75;;;;;;;-144.01;100.00;62166.59;5055835;28;20646;-49
2021/01/10 06:45:40;;;;;;;3.10;2.30;;;;;;;-144.01;100.00;62166.59;5054630;28;20052;-47
2021/01/10 06:48:08;;;;;;;3.35;2.30;;;;;;;-144.01;100.00;62166.59;5061784;28;20048;-48
2021/01/10 06:50:36;;;;;;;3.05;2.40;;;;;;;-144.01;100.00;62166.59;5062685;28;20053;-46
2021/01/10 06:53:11;;;;;;;3.88;2.67;;;;;;;-144.01;100.00;62166.59;5062970;28;20047;-46
2021/01/10 06:55:38;;;;;;;4.50;2.65;;;;;;;-144.01;100.00;62166.59;5047854;28;20060;-46
2021/01/10 06:58:09;;;;;;;3.67;2.50;;;;;;;-144.01;100.00;62166.59;5064701;28;20045;-47
2021/01/10 07:00:53;;;;;;;2.88;2.25;;;;;;;-144.01;100.00;62166.59;5061562;28;20052;-46
2021/01/10 07:03:21;;;;;;;3.55;2.33;;;;;;;-144.01;100.00;62166.59;5062920;28;20053;-48
2021/01/10 07:06:07;;;;;;;3.55;2.17;;;;;;;-144.01;100.00;62166.59;5062578;28;20049;-47
2021/01/10 07:08:39;;;;;;;4.07;2.50;;;;;;;-144.01;100.00;62166.59;5064501;28;20055;-66
2021/01/10 07:11:31;;;;;;;4.32;2.75;;;;;;;-144.01;100.00;62166.59;5063927;28;20048;-47
2021/01/10 07:13:58;;;;;;;5.97;3.40;;;;;;;-144.01;100.00;62166.59;5061931;28;20791;-49
2021/01/10 07:16:26;;;;;;;3.78;2.92;;;;;;;-144.01;100.00;62166.59;5063751;28;20049;-48
2021/01/10 07:19:06;;;;;;;4.22;3.40;;;;;;;-144.01;100.00;62166.59;5062164;28;20056;-47
2021/01/10 07:21:34;;;;;;;4.78;3.55;;;;;;;-144.01;100.00;62166.59;5064363;28;20044;-49
2021/01/10 07:24:14;;;;;;;5.32;3.70;;;;;;;-144.01;100.00;62166.59;5067375;28;20060;-46
2021/01/10 07:26:48;;;;;;;4.07;3.47;;;;;;;-144.01;100.00;62166.59;5067105;28;20460;-60
2021/01/10 07:29:43;;;;;;;4.97;3.88;;;;;;;-144.01;100.00;62166.59;5067940;28;20534;-48
2021/01/10 07:32:21;;;;;;;3.10;2.75;;;;;;;-144.01;100.00;62166.59;5067624;28;20454;-47
2021/01/10 07:34:49;;;;;;;3.70;3.00;;;;;;;-144.01;100.00;62166.59;5068084;28;20048;-50
2021/01/10 07:37:16;;;;;;;4.35;3.25;;;;;;;-144.01;100.00;62166.59;5065971;28;20064;-49
2021/01/10 07:39:56;;;;;;;4.28;3.30;;;;;;;-144.01;100.00;62166.59;5066898;28;20053;-48
2021/01/10 07:42:25;;;;;;;3.95;3.33;;;;;;;-144.01;100.00;62166.59;5075496;28;20048;-49
2021/01/10 07:44:58;;;;;;;4.63;3.63;;;;;;;-144.01;100.00;62166.59;5068535;28;20073;-47
2021/01/10 07:47:35;;;;;;;4.00;3.03;;;;;;;-144.01;100.00;62166.59;5065427;28;20057;-47
2021/01/10 07:50:22;;;;;;;3.78;3.10;;;;;;;-144.01;100.00;62166.59;5065774;28;20087;-47
2021/01/10 07:52:50;;;;;;;4.18;2.90;;;;;;;-144.01;100.00;62166.59;5064610;28;20057;-46
2021/01/10 07:55:20;;;;;;;4.70;3.00;;;;;;;-144.01;100.00;62166.59;5066081;28;20068;-50
2021/01/10 07:57:52;;;;;;;3.55;2.67;;;;;;;-144.01;100.00;62166.59;5064756;28;20040;-51
2021/01/10 08:00:24;;;;;;;3.63;2.72;;;;;;;-144.01;100.00;62166.59;5065118;28;20067;-52
2021/01/10 08:03:00;;;;;;;4.30;2.65;;;;;;;-144.01;100.00;62166.59;5067835;28;20070;-52
2021/01/10 08:05:41;;;;;;;4.05;2.70;;;;;;;-144.01;100.00;62166.59;5076715;28;20477;-49
2021/01/10 08:08:17;;;;;;;3.95;3.13;;;;;;;-144.01;100.00;62166.59;5076694;28;20056;-50
2021/01/10 08:10:51;;;;;;;4.88;2.40;;;;;;;-144.01;100.00;62166.59;5076938;28;20378;-49
2021/01/10 08:13:30;;;;;;;4.53;2.97;;;;;;;-144.01;100.00;62166.59;5076186;28;20051;-48
2021/01/10 08:16:11;;;;;;;3.97;2.78;;;;;;;-144.01;100.00;62166.59;5076457;28;20642;-49
2021/01/10 08:18:44;;;;;;;3.35;2.60;;;;;;;-144.01;100.00;62166.59;5076598;28;20040;-46
2021/01/10 08:21:13;;;;;;;3.58;2.55;;;;;;;-144.01;100.00;62166.59;5076479;28;20056;-48
2021/01/10 08:23:42;;;;;;;4.15;3.20;;;;;;;-144.01;100.00;62166.59;5075640;28;20064;-49
2021/01/10 08:26:14;;;;;;;3.70;2.58;;;;;;;-144.01;100.00;62166.59;5076421;28;20051;-48
2021/01/10 08:28:45;;;;;;;3.38;2.72;;;;;;;-144.01;100.00;62166.59;5076492;28;20446;-50
2021/01/10 08:31:14;;;;;;;3.53;3.00;;;;;;;-144.01;100.00;62166.59;5075509;28;20059;-47
2021/01/10 08:33:42;;;;;;;4.85;2.83;;;;;;;-144.01;100.00;62166.59;5075509;28;20048;-47
2021/01/10 08:36:18;;;;;;;3.60;2.70;;;;;;;-144.01;100.00;62166.59;5076061;28;20358;-49
2021/01/10 08:38:47;;;;;;;3.30;2.67;;;;;;;-144.01;100.00;62166.59;5076227;28;20055;-50
2021/01/10 08:41:42;;;;;;;5.45;4.43;;;;;;;-144.01;100.00;62166.59;5076226;28;20044;-50
2021/01/10 08:44:14;;;;;;;6.45;4.05;;;;;;;-144.01;100.00;62166.59;5062721;28;20053;-52
2021/01/10 08:46:43;;;;;;;7.25;5.40;;;;;;;-144.01;100.00;62166.59;5055870;28;20052;-49
2021/01/10 08:49:19;;;;;;;5.47;4.30;;;;;;;-144.01;100.00;62166.59;5055936;28;20051;-49
2021/01/10 08:51:50;;;;;;;6.38;4.53;;;;;;;-144.01;100.00;62166.59;5039567;28;20423;-52
2021/01/10 08:54:24;;;;;;;5.68;4.45;;;;;;;-144.01;100.00;62166.59;5060673;28;20052;-48
2021/01/10 08:56:52;;;;;;;4.72;4.13;;;;;;;-144.01;100.00;62166.59;5068997;28;20052;-48
2021/01/10 08:59:19;;;;;;;4.50;4.00;;;;;;;-144.01;100.00;62166.59;5075257;28;20051;-45
2021/01/10 09:01:48;;;;;;;4.70;3.90;;;;;;;-144.01;100.00;62166.59;5074685;28;20170;-48
2021/01/10 09:04:16;;;;;;;4.82;3.85;;;;;;;-144.01;100.00;62166.59;5060954;28;20049;-51
2021/01/10 09:06:52;;;;;;;5.47;4.18;;;;;;;-144.01;100.00;62166.59;5055048;28;20053;-50
2021/01/10 09:09:40;;;;;;;5.47;3.35;;;;;;;-144.01;100.00;62166.59;5037941;28;20050;-50
2021/01/10 09:12:25;;;;;;;4.28;3.50;;;;;;;-144.01;100.00;62166.59;5040893;28;20556;-53
2021/01/10 09:15:02;;;;;;;4.53;3.50;;;;;;;-144.01;100.00;62166.59;5074337;28;20045;-46
2021/01/10 09:17:36;;;;;;;5.05;3.90;;;;;;;-144.01;100.00;62166.59;5075339;28;20048;-48
2021/01/10 09:20:08;;;;;;;4.68;3.60;;;;;;;-144.01;100.00;62166.59;5054429;28;20059;-47
2021/01/10 09:22:36;;;;;;;7.90;3.42;;;;;;;-144.01;100.00;62166.59;5061760;28;20056;-46
2021/01/10 09:25:14;;;;;;;5.15;3.80;;;;;;;-144.01;100.00;62166.59;5054229;28;20059;-47
2021/01/10 09:28:06;;;;;;;7.38;4.38;;;;;;;-144.01;100.00;62166.59;5055243;28;20055;-47
2021/01/10 09:30:34;;;;;;;5.85;4.50;;;;;;;-144.01;100.00;62166.59;5059509;28;20044;-47
2021/01/10 09:33:04;;;;;;;7.90;4.53;;;;;;;-144.01;100.00;62166.59;5075099;28;20079;-47
2021/01/10 09:35:57;;;;;;;5.55;4.40;;;;;;;-144.01;100.00;62166.59;5074997;28;20079;-47
2021/01/10 09:38:31;;;;;;;;;;;;;;;-144.01;100.00;62166.59;5074074;28;20083;-46
2021/01/10 09:41:07;;;;;;;5.85;4.20;;;;;;;-144.01;100.00;62166.59;5062146;28;20239;-49
2021/01/10 09:43:42;;;;;;;6.80;4.28;;;;;;;-144.01;100.00;62166.59;5068911;28;20052;-48
2021/01/10 09:46:31;;;;;;;6.63;5.18;;;;;;;-144.01;100.00;62166.59;5074906;28;20374;-48
2021/01/10 09:49:07;;;;;;;8.10;5.20;;;;;;;-144.01;100.00;62166.59;5059533;28;20071;-46
2021/01/10 09:51:43;;;;;;;6.55;5.00;;;;;;;-144.01;100.00;62166.59;5054907;28;20060;-48
2021/01/10 09:54:17;;;;;;;4.90;3.78;;;;;;;-144.01;100.00;62166.59;5073829;28;20048;-47
2021/01/10 09:56:52;;;;;;;11.52;7.78;;;;;;;-144.01;100.00;62166.59;5072714;28;20367;-49
2021/01/10 09:59:34;;;;;;;7.25;4.43;;;;;;;-144.01;100.00;62166.59;5074786;28;20067;-48
2021/01/10 10:02:15;;;;;;;6.33;4.47;;;;;;;-144.01;100.00;62166.59;5074341;28;20048;-44
2021/01/10 10:04:47;;;;;;;6.90;3.90;;;;;;;-144.01;100.00;62166.59;5055286;28;20045;-46
2021/01/10 10:07:34;;;;;;;6.32;4.13;;;;;;;-144.01;100.00;62166.59;5054425;28;20049;-46
2021/01/10 10:10:03;;;;;;;10.70;8.55;;;;;;;-144.01;100.00;62166.59;5054303;28;20045;-48
2021/01/10 10:12:31;;;;;;;12.02;9.68;;;;;;;-144.01;100.00;62166.59;5055502;28;20056;-46
2021/01/10 10:15:06;;;;;;;9.95;5.32;;;;;;;-144.01;100.00;62166.59;5054405;28;20048;-45
2021/01/10 10:17:38;;;;;;;7.03;4.80;;;;;;;-144.01;100.00;62166.59;5054748;28;20045;-52
2021/01/10 10:20:06;;;;;;;6.18;4.35;;;;;;;-144.01;100.00;62166.59;5055631;28;20056;-47
2021/01/10 10:22:36;;;;;;;6.95;4.57;;;;;;;-144.01;100.00;62166.59;5073883;28;20056;-50
2021/01/10 10:25:12;;;;;;;7.18;5.28;;;;;;;-144.01;100.00;62166.59;5062114;28;20486;-45
2021/01/10 10:27:57;;;;;;;7.80;5.18;;;;;;;-144.01;100.00;62166.59;5054380;28;20056;-47
2021/01/10 10:30:25;;;;;;;11.10;5.28;;;;;;;-144.01;100.00;62166.59;5057470;28;20435;-53
2021/01/10 10:32:53;;;;;;;7.50;5.28;;;;;;;-144.01;100.00;62166.59;5067807;28;20045;-52
2021/01/10 10:35:20;;;;;;;6.88;4.45;;;;;;;-144.01;100.00;62166.59;5054092;28;20040;-44
2021/01/10 10:37:48;;;;;;;7.15;4.15;;;;;;;-144.01;100.00;62166.59;5054138;28;20052;-45
2021/01/10 10:40:16;;;;;;;6.28;4.72;;;;;;;-144.01;100.00;62166.59;5054077;28;20060;-51
2021/01/10 10:42:43;;;;;;;6.88;4.72;;;;;;;-144.01;100.00;62166.59;5059418;28;20773;-60
2021/01/10 10:45:11;;;;;;;6.45;4.75;;;;;;;-144.01;100.00;62166.59;5060350;28;20044;-47
2021/01/10 10:47:38;;;;;;;6.57;3.78;;;;;;;-144.01;100.00;62166.59;5053814;28;20053;-51
2021/01/10 10:50:06;;;;;;;5.43;3.90;;;;;;;-144.01;100.00;62166.59;5053769;28;20447;-59
2021/01/10 10:52:33;;;;;;;5.20;4.22;;;;;;;-144.01;100.00;62166.59;5057347;28;20048;-51
2021/01/10 10:55:01;;;;;;;5.55;4.10;;;;;;;-144.01;100.00;62166.59;5073781;28;20052;-52
2021/01/10 10:57:28;;;;;;;8.10;5.10;;;;;;;-144.01;100.00;62166.59;5073376;28;20071;-56
2021/01/10 10:59:55;;;;;;;6.97;5.80;;;;;;;-144.01;100.00;62166.59;5073757;28;20052;-52
2021/01/10 11:02:22;;;;;;;6.22;5.10;;;;;;;-144.01;100.00;62166.59;5073436;28;20048;-49
2021/01/10 11:04:49;;;;;;;6.95;4.57;;;;;;;-144.01;100.00;62166.59;5073767;28;20059;-56
2021/01/10 11:07:17;;;;;;;6.68;5.18;;;;;;;-144.01;100.00;62166.59;5054751;28;20060;-52
2021/01/10 11:09:45;;;;;;;6.32;5.18;;;;;;;-144.01;100.00;62166.59;5053634;28;20372;-50
2021/01/10 11:12:14;;;;;;;7.15;5.30;;;;;;;-144.01;100.00;62166.59;5054122;28;20056;-54
2021/01/10 11:14:41;;;;;;;5.95;4.63;;;;;;;-144.01;100.00;62166.59;5064217;28;20083;-68
2021/01/10 11:17:10;;;;;;;6.53;4.90;;;;;;;-144.01;100.00;62166.59;5053420;28;20048;-52
2021/01/10 11:19:38;;;;;;;5.68;4.20;;;;;;;-144.01;100.00;62166.59;5053819;28;20045;-51
2021/01/10 11:22:06;;;;;;;7.55;4.68;;;;;;;-144.01;100.00;62166.59;5052516;28;20063;-50
2021/01/10 11:24:34;;;;;;;6.20;4.45;;;;;;;-144.01;100.00;62166.59;5072631;28;20071;-53
2021/01/10 11:27:02;;;;;;;6.25;4.30;;;;;;;-144.01;100.00;62166.59;5054943;28;20476;-56